sensor_id;sensor_type;location;lat;lon;timestamp;P1;durP1;ratioP1;P2;durP2;ratioP2
38972;SDS011;25333;50.762;4.470;2022-09-09T00:00:17;2.20;;;0.40;;
38972;SDS011;25333;50.762;4.470;2022-09-09T00:02:46;2.05;;;0.50;;
38972;SDS011;25333;50.762;4.470;2022-09-09T00:05:38;0.90;;;0.40;;
38972;SDS011;25333;50.762;4.470;2022-09-09T00:08:15;1.50;;;0.30;;
38972;SDS011;25333;50.762;4.470;2022-09-09T00:10:45;2.53;;;0.20;;
38972;SDS011;25333;50.762;4.470;2022-09-09T00:13:22;0.93;;;0.28;;
38972;SDS011;25333;50.762;4.470;2022-09-09T00:16:15;1.20;;;0.30;;
38972;SDS011;25333;50.762;4.470;2022-09-09T00:21:45;1.00;;;0.30;;
38972;SDS011;25333;50.762;4.470;2022-09-09T00:24:38;2.72;;;0.20;;
38972;SDS011;25333;50.762;4.470;2022-09-09T00:27:11;2.80;;;0.52;;
38972;SDS011;25333;50.762;4.470;2022-09-09T00:32:16;2.05;;;0.47;;
38972;SDS011;25333;50.762;4.470;2022-09-09T00:34:54;2.67;;;0.50;;
38972;SDS011;25333;50.762;4.470;2022-09-09T00:37:24;1.92;;;0.35;;
38972;SDS011;25333;50.762;4.470;2022-09-09T00:39:51;4.60;;;0.70;;
38972;SDS011;25333;50.762;4.470;2022-09-09T00:44:52;3.03;;;0.43;;
38972;SDS011;25333;50.762;4.470;2022-09-09T00:52:49;2.80;;;0.50;;
38972;SDS011;25333;50.762;4.470;2022-09-09T00:55:21;2.45;;;0.60;;
38972;SDS011;25333;50.762;4.470;2022-09-09T00:57:52;2.25;;;0.50;;
38972;SDS011;25333;50.762;4.470;2022-09-09T01:05:33;2.60;;;0.50;;
38972;SDS011;25333;50.762;4.470;2022-09-09T01:14:11;1.55;;;0.40;;
38972;SDS011;25333;50.762;4.470;2022-09-09T01:16:58;3.10;;;0.30;;
38972;SDS011;25333;50.762;4.470;2022-09-09T01:19:55;4.53;;;1.03;;
38972;SDS011;25333;50.762;4.470;2022-09-09T01:22:37;2.00;;;0.50;;
38972;SDS011;25333;50.762;4.470;2022-09-09T01:25:28;2.80;;;0.52;;
38972;SDS011;25333;50.762;4.470;2022-09-09T01:27:58;2.47;;;0.55;;
38972;SDS011;25333;50.762;4.470;2022-09-09T01:30:28;3.15;;;0.50;;
38972;SDS011;25333;50.762;4.470;2022-09-09T01:32:55;2.25;;;0.30;;
38972;SDS011;25333;50.762;4.470;2022-09-09T01:35:35;1.40;;;0.50;;
38972;SDS011;25333;50.762;4.470;2022-09-09T01:38:10;2.40;;;0.90;;
38972;SDS011;25333;50.762;4.470;2022-09-09T01:40:35;2.07;;;0.50;;
38972;SDS011;25333;50.762;4.470;2022-09-09T01:43:01;1.65;;;0.35;;
38972;SDS011;25333;50.762;4.470;2022-09-09T01:45:27;2.65;;;0.65;;
38972;SDS011;25333;50.762;4.470;2022-09-09T01:47:53;2.97;;;0.60;;
38972;SDS011;25333;50.762;4.470;2022-09-09T01:50:19;3.80;;;0.70;;
38972;SDS011;25333;50.762;4.470;2022-09-09T01:52:46;2.40;;;0.47;;
38972;SDS011;25333;50.762;4.470;2022-09-09T01:55:18;2.15;;;0.40;;
38972;SDS011;25333;50.762;4.470;2022-09-09T02:00:31;4.53;;;0.73;;
38972;SDS011;25333;50.762;4.470;2022-09-09T02:03:05;2.10;;;0.55;;
38972;SDS011;25333;50.762;4.470;2022-09-09T02:05:55;2.15;;;0.65;;
38972;SDS011;25333;50.762;4.470;2022-09-09T02:08:42;3.50;;;0.80;;
38972;SDS011;25333;50.762;4.470;2022-09-09T02:11:19;2.70;;;0.38;;
38972;SDS011;25333;50.762;4.470;2022-09-09T02:13:47;3.53;;;0.55;;
38972;SDS011;25333;50.762;4.470;2022-09-09T02:16:17;2.20;;;0.70;;
38972;SDS011;25333;50.762;4.470;2022-09-09T02:19:08;3.00;;;0.60;;
38972;SDS011;25333;50.762;4.470;2022-09-09T02:22:07;2.73;;;0.50;;
38972;SDS011;25333;50.762;4.470;2022-09-09T02:24:33;1.13;;;0.30;;
38972;SDS011;25333;50.762;4.470;2022-09-09T02:27:01;2.30;;;0.60;;
38972;SDS011;25333;50.762;4.470;2022-09-09T02:29:32;3.10;;;0.55;;
38972;SDS011;25333;50.762;4.470;2022-09-09T02:32:05;2.05;;;0.60;;
38972;SDS011;25333;50.762;4.470;2022-09-09T02:34:35;1.60;;;0.47;;
38972;SDS011;25333;50.762;4.470;2022-09-09T02:37:04;2.65;;;0.70;;
38972;SDS011;25333;50.762;4.470;2022-09-09T02:39:33;2.50;;;0.30;;
38972;SDS011;25333;50.762;4.470;2022-09-09T02:41:58;5.80;;;0.50;;
38972;SDS011;25333;50.762;4.470;2022-09-09T02:44:24;1.90;;;0.60;;
38972;SDS011;25333;50.762;4.470;2022-09-09T02:52:55;1.92;;;0.70;;
38972;SDS011;25333;50.762;4.470;2022-09-09T02:58:12;1.50;;;0.50;;
38972;SDS011;25333;50.762;4.470;2022-09-09T03:00:42;3.33;;;0.45;;
38972;SDS011;25333;50.762;4.470;2022-09-09T03:03:11;1.40;;;0.45;;
38972;SDS011;25333;50.762;4.470;2022-09-09T03:05:37;2.05;;;0.50;;
38972;SDS011;25333;50.762;4.470;2022-09-09T03:08:04;1.55;;;0.47;;
38972;SDS011;25333;50.762;4.470;2022-09-09T03:10:30;3.03;;;0.70;;
38972;SDS011;25333;50.762;4.470;2022-09-09T03:12:56;2.43;;;0.70;;
38972;SDS011;25333;50.762;4.470;2022-09-09T03:15:22;1.52;;;0.60;;
38972;SDS011;25333;50.762;4.470;2022-09-09T03:17:48;1.88;;;0.50;;
38972;SDS011;25333;50.762;4.470;2022-09-09T03:20:13;4.03;;;0.80;;
38972;SDS011;25333;50.762;4.470;2022-09-09T03:22:39;6.55;;;1.20;;
38972;SDS011;25333;50.762;4.470;2022-09-09T03:25:05;6.83;;;1.27;;
38972;SDS011;25333;50.762;4.470;2022-09-09T03:27:31;2.40;;;0.50;;
38972;SDS011;25333;50.762;4.470;2022-09-09T03:29:57;2.40;;;0.80;;
38972;SDS011;25333;50.762;4.470;2022-09-09T03:32:23;3.45;;;0.73;;
38972;SDS011;25333;50.762;4.470;2022-09-09T03:34:52;3.05;;;1.05;;
38972;SDS011;25333;50.762;4.470;2022-09-09T03:37:19;4.72;;;0.98;;
38972;SDS011;25333;50.762;4.470;2022-09-09T03:39:45;5.47;;;1.20;;
38972;SDS011;25333;50.762;4.470;2022-09-09T03:42:14;6.47;;;1.33;;
38972;SDS011;25333;50.762;4.470;2022-09-09T03:44:43;1.88;;;0.77;;
38972;SDS011;25333;50.762;4.470;2022-09-09T03:47:14;8.07;;;1.63;;
38972;SDS011;25333;50.762;4.470;2022-09-09T03:49:44;4.07;;;1.23;;
38972;SDS011;25333;50.762;4.470;2022-09-09T03:52:10;4.95;;;1.15;;
38972;SDS011;25333;50.762;4.470;2022-09-09T03:54:36;3.42;;;0.93;;
38972;SDS011;25333;50.762;4.470;2022-09-09T03:57:02;4.93;;;0.82;;
38972;SDS011;25333;50.762;4.470;2022-09-09T03:59:29;2.67;;;0.70;;
38972;SDS011;25333;50.762;4.470;2022-09-09T04:01:55;6.03;;;1.23;;
38972;SDS011;25333;50.762;4.470;2022-09-09T04:04:22;5.03;;;0.90;;
38972;SDS011;25333;50.762;4.470;2022-09-09T04:06:47;6.72;;;1.25;;
38972;SDS011;25333;50.762;4.470;2022-09-09T04:09:13;2.93;;;0.73;;
38972;SDS011;25333;50.762;4.470;2022-09-09T04:11:39;3.30;;;0.90;;
38972;SDS011;25333;50.762;4.470;2022-09-09T04:14:05;3.80;;;1.10;;
38972;SDS011;25333;50.762;4.470;2022-09-09T04:16:31;5.65;;;1.10;;
38972;SDS011;25333;50.762;4.470;2022-09-09T04:18:58;4.65;;;1.40;;
38972;SDS011;25333;50.762;4.470;2022-09-09T04:21:24;7.00;;;1.58;;
38972;SDS011;25333;50.762;4.470;2022-09-09T04:23:51;4.57;;;1.02;;
38972;SDS011;25333;50.762;4.470;2022-09-09T04:26:16;3.60;;;0.80;;
38972;SDS011;25333;50.762;4.470;2022-09-09T04:28:43;4.32;;;0.93;;
38972;SDS011;25333;50.762;4.470;2022-09-09T04:31:14;8.73;;;1.35;;
38972;SDS011;25333;50.762;4.470;2022-09-09T04:33:43;3.63;;;0.90;;
38972;SDS011;25333;50.762;4.470;2022-09-09T04:36:09;4.03;;;1.20;;
38972;SDS011;25333;50.762;4.470;2022-09-09T04:38:34;8.13;;;1.30;;
38972;SDS011;25333;50.762;4.470;2022-09-09T04:41:00;3.97;;;1.60;;
38972;SDS011;25333;50.762;4.470;2022-09-09T04:43:26;9.05;;;1.73;;
38972;SDS011;25333;50.762;4.470;2022-09-09T04:45:52;5.28;;;1.08;;
38972;SDS011;25333;50.762;4.470;2022-09-09T04:48:18;4.83;;;1.30;;
38972;SDS011;25333;50.762;4.470;2022-09-09T04:50:52;5.45;;;1.10;;
38972;SDS011;25333;50.762;4.470;2022-09-09T04:53:19;19.13;;;3.03;;
38972;SDS011;25333;50.762;4.470;2022-09-09T04:55:45;5.13;;;1.48;;
38972;SDS011;25333;50.762;4.470;2022-09-09T04:58:11;6.53;;;1.73;;
38972;SDS011;25333;50.762;4.470;2022-09-09T05:00:36;7.10;;;1.55;;
38972;SDS011;25333;50.762;4.470;2022-09-09T05:03:05;6.97;;;1.65;;
38972;SDS011;25333;50.762;4.470;2022-09-09T05:05:33;4.90;;;1.23;;
38972;SDS011;25333;50.762;4.470;2022-09-09T05:08:03;7.13;;;1.25;;
38972;SDS011;25333;50.762;4.470;2022-09-09T05:10:31;5.60;;;1.63;;
38972;SDS011;25333;50.762;4.470;2022-09-09T05:12:57;5.90;;;1.52;;
38972;SDS011;25333;50.762;4.470;2022-09-09T05:15:22;7.00;;;2.30;;
38972;SDS011;25333;50.762;4.470;2022-09-09T05:17:48;6.60;;;1.73;;
38972;SDS011;25333;50.762;4.470;2022-09-09T05:20:13;6.17;;;1.80;;
38972;SDS011;25333;50.762;4.470;2022-09-09T05:22:39;6.32;;;2.03;;
38972;SDS011;25333;50.762;4.470;2022-09-09T05:25:05;6.18;;;2.03;;
38972;SDS011;25333;50.762;4.470;2022-09-09T05:27:33;4.60;;;1.25;;
38972;SDS011;25333;50.762;4.470;2022-09-09T05:29:59;6.68;;;1.85;;
38972;SDS011;25333;50.762;4.470;2022-09-09T05:32:25;7.10;;;2.60;;
38972;SDS011;25333;50.762;4.470;2022-09-09T05:34:51;4.30;;;1.70;;
38972;SDS011;25333;50.762;4.470;2022-09-09T05:37:17;5.47;;;1.70;;
38972;SDS011;25333;50.762;4.470;2022-09-09T05:39:43;5.20;;;1.85;;
38972;SDS011;25333;50.762;4.470;2022-09-09T05:42:12;6.45;;;1.40;;
38972;SDS011;25333;50.762;4.470;2022-09-09T05:44:38;4.10;;;1.77;;
38972;SDS011;25333;50.762;4.470;2022-09-09T05:47:04;5.85;;;1.70;;
38972;SDS011;25333;50.762;4.470;2022-09-09T05:49:30;6.40;;;2.57;;
38972;SDS011;25333;50.762;4.470;2022-09-09T05:51:55;6.90;;;1.70;;
38972;SDS011;25333;50.762;4.470;2022-09-09T05:54:21;5.63;;;1.65;;
38972;SDS011;25333;50.762;4.470;2022-09-09T05:56:46;7.33;;;2.00;;
38972;SDS011;25333;50.762;4.470;2022-09-09T05:59:14;4.82;;;1.27;;
38972;SDS011;25333;50.762;4.470;2022-09-09T06:01:40;7.90;;;1.60;;
38972;SDS011;25333;50.762;4.470;2022-09-09T06:04:07;6.20;;;1.77;;
38972;SDS011;25333;50.762;4.470;2022-09-09T06:06:34;5.07;;;1.73;;
38972;SDS011;25333;50.762;4.470;2022-09-09T06:09:02;6.00;;;1.70;;
38972;SDS011;25333;50.762;4.470;2022-09-09T06:11:31;7.32;;;1.63;;
38972;SDS011;25333;50.762;4.470;2022-09-09T06:13:58;5.35;;;1.20;;
38972;SDS011;25333;50.762;4.470;2022-09-09T06:16:26;5.00;;;1.45;;
38972;SDS011;25333;50.762;4.470;2022-09-09T06:18:53;6.73;;;2.10;;
38972;SDS011;25333;50.762;4.470;2022-09-09T06:21:23;7.93;;;2.08;;
38972;SDS011;25333;50.762;4.470;2022-09-09T06:23:51;6.72;;;1.85;;
38972;SDS011;25333;50.762;4.470;2022-09-09T06:26:17;3.92;;;1.55;;
38972;SDS011;25333;50.762;4.470;2022-09-09T06:28:46;9.48;;;2.08;;
38972;SDS011;25333;50.762;4.470;2022-09-09T06:31:15;3.90;;;1.60;;
38972;SDS011;25333;50.762;4.470;2022-09-09T06:33:52;7.85;;;1.42;;
38972;SDS011;25333;50.762;4.470;2022-09-09T06:36:28;8.00;;;1.40;;
38972;SDS011;25333;50.762;4.470;2022-09-09T06:38:56;5.55;;;1.40;;
38972;SDS011;25333;50.762;4.470;2022-09-09T06:41:22;4.43;;;1.50;;
38972;SDS011;25333;50.762;4.470;2022-09-09T06:43:50;7.10;;;1.50;;
38972;SDS011;25333;50.762;4.470;2022-09-09T06:46:19;5.82;;;1.08;;
38972;SDS011;25333;50.762;4.470;2022-09-09T06:48:53;4.95;;;1.60;;
38972;SDS011;25333;50.762;4.470;2022-09-09T06:51:24;4.63;;;1.73;;
38972;SDS011;25333;50.762;4.470;2022-09-09T06:53:59;5.70;;;1.45;;
38972;SDS011;25333;50.762;4.470;2022-09-09T06:58:53;3.72;;;1.77;;
38972;SDS011;25333;50.762;4.470;2022-09-09T07:01:24;5.60;;;1.48;;
38972;SDS011;25333;50.762;4.470;2022-09-09T07:03:52;6.95;;;1.83;;
38972;SDS011;25333;50.762;4.470;2022-09-09T07:06:27;6.43;;;1.50;;
38972;SDS011;25333;50.762;4.470;2022-09-09T07:08:55;7.57;;;2.08;;
38972;SDS011;25333;50.762;4.470;2022-09-09T07:11:23;7.38;;;1.52;;
38972;SDS011;25333;50.762;4.470;2022-09-09T07:13:52;6.10;;;1.35;;
38972;SDS011;25333;50.762;4.470;2022-09-09T07:16:19;8.63;;;1.80;;
38972;SDS011;25333;50.762;4.470;2022-09-09T07:18:45;7.18;;;1.60;;
38972;SDS011;25333;50.762;4.470;2022-09-09T07:21:14;6.70;;;1.25;;
38972;SDS011;25333;50.762;4.470;2022-09-09T07:23:57;4.35;;;1.27;;
38972;SDS011;25333;50.762;4.470;2022-09-09T07:26:28;6.32;;;1.98;;
38972;SDS011;25333;50.762;4.470;2022-09-09T07:29:03;4.75;;;1.25;;
38972;SDS011;25333;50.762;4.470;2022-09-09T07:31:42;5.97;;;1.40;;
38972;SDS011;25333;50.762;4.470;2022-09-09T07:34:17;6.50;;;1.60;;
38972;SDS011;25333;50.762;4.470;2022-09-09T07:37:03;4.82;;;1.60;;
38972;SDS011;25333;50.762;4.470;2022-09-09T07:39:42;6.85;;;2.10;;
38972;SDS011;25333;50.762;4.470;2022-09-09T07:42:19;7.07;;;1.60;;
38972;SDS011;25333;50.762;4.470;2022-09-09T07:45:16;8.25;;;2.35;;
38972;SDS011;25333;50.762;4.470;2022-09-09T07:47:42;3.85;;;1.83;;
38972;SDS011;25333;50.762;4.470;2022-09-09T07:50:15;5.13;;;1.80;;
38972;SDS011;25333;50.762;4.470;2022-09-09T07:52:41;9.20;;;2.40;;
38972;SDS011;25333;50.762;4.470;2022-09-09T07:55:14;6.70;;;1.20;;
38972;SDS011;25333;50.762;4.470;2022-09-09T07:57:40;6.60;;;1.80;;
38972;SDS011;25333;50.762;4.470;2022-09-09T08:00:23;6.97;;;1.53;;
38972;SDS011;25333;50.762;4.470;2022-09-09T08:03:08;9.15;;;1.55;;
38972;SDS011;25333;50.762;4.470;2022-09-09T08:05:40;3.70;;;1.23;;
38972;SDS011;25333;50.762;4.470;2022-09-09T08:08:06;5.03;;;1.30;;
38972;SDS011;25333;50.762;4.470;2022-09-09T08:10:32;2.92;;;1.10;;
38972;SDS011;25333;50.762;4.470;2022-09-09T08:16:32;6.03;;;2.00;;
38972;SDS011;25333;50.762;4.470;2022-09-09T08:19:47;5.57;;;2.35;;
38972;SDS011;25333;50.762;4.470;2022-09-09T08:22:23;6.40;;;1.90;;
38972;SDS011;25333;50.762;4.470;2022-09-09T08:25:12;4.72;;;1.40;;
38972;SDS011;25333;50.762;4.470;2022-09-09T08:27:37;4.00;;;1.57;;
38972;SDS011;25333;50.762;4.470;2022-09-09T08:30:03;5.80;;;1.58;;
38972;SDS011;25333;50.762;4.470;2022-09-09T08:32:29;3.33;;;1.52;;
38972;SDS011;25333;50.762;4.470;2022-09-09T08:34:55;4.70;;;1.43;;
38972;SDS011;25333;50.762;4.470;2022-09-09T08:37:20;7.55;;;1.33;;
38972;SDS011;25333;50.762;4.470;2022-09-09T08:39:46;5.50;;;1.80;;
38972;SDS011;25333;50.762;4.470;2022-09-09T08:42:31;7.78;;;1.70;;
38972;SDS011;25333;50.762;4.470;2022-09-09T08:45:14;5.18;;;1.50;;
38972;SDS011;25333;50.762;4.470;2022-09-09T08:50:30;6.70;;;1.38;;
38972;SDS011;25333;50.762;4.470;2022-09-09T08:56:00;3.77;;;0.97;;
38972;SDS011;25333;50.762;4.470;2022-09-09T08:58:33;5.05;;;1.83;;
38972;SDS011;25333;50.762;4.470;2022-09-09T09:03:47;4.97;;;1.40;;
38972;SDS011;25333;50.762;4.470;2022-09-09T09:06:39;3.97;;;1.23;;
38972;SDS011;25333;50.762;4.470;2022-09-09T09:09:19;2.97;;;1.00;;
38972;SDS011;25333;50.762;4.470;2022-09-09T09:11:56;4.03;;;1.15;;
38972;SDS011;25333;50.762;4.470;2022-09-09T09:14:31;6.15;;;1.20;;
38972;SDS011;25333;50.762;4.470;2022-09-09T09:17:18;8.20;;;1.50;;
38972;SDS011;25333;50.762;4.470;2022-09-09T09:19:46;3.70;;;1.30;;
38972;SDS011;25333;50.762;4.470;2022-09-09T09:22:18;4.20;;;1.42;;
38972;SDS011;25333;50.762;4.470;2022-09-09T09:29:59;9.30;;;1.50;;
38972;SDS011;25333;50.762;4.470;2022-09-09T09:32:28;5.88;;;1.88;;
38972;SDS011;25333;50.762;4.470;2022-09-09T09:34:58;6.20;;;1.58;;
38972;SDS011;25333;50.762;4.470;2022-09-09T09:37:29;11.65;;;2.10;;
38972;SDS011;25333;50.762;4.470;2022-09-09T09:40:08;6.32;;;1.48;;
38972;SDS011;25333;50.762;4.470;2022-09-09T09:42:34;7.63;;;2.10;;
38972;SDS011;25333;50.762;4.470;2022-09-09T09:45:07;7.95;;;2.15;;
38972;SDS011;25333;50.762;4.470;2022-09-09T09:47:58;2.67;;;1.23;;
38972;SDS011;25333;50.762;4.470;2022-09-09T09:50:29;6.45;;;2.20;;
38972;SDS011;25333;50.762;4.470;2022-09-09T09:52:55;3.17;;;1.20;;
38972;SDS011;25333;50.762;4.470;2022-09-09T09:55:23;6.85;;;1.83;;
38972;SDS011;25333;50.762;4.470;2022-09-09T09:57:50;7.18;;;1.63;;
38972;SDS011;25333;50.762;4.470;2022-09-09T10:00:17;8.15;;;1.70;;
38972;SDS011;25333;50.762;4.470;2022-09-09T10:02:48;4.93;;;1.60;;
38972;SDS011;25333;50.762;4.470;2022-09-09T10:07:47;8.52;;;2.08;;
38972;SDS011;25333;50.762;4.470;2022-09-09T10:13:15;4.32;;;1.70;;
38972;SDS011;25333;50.762;4.470;2022-09-09T10:16:02;5.85;;;1.67;;
38972;SDS011;25333;50.762;4.470;2022-09-09T10:24:18;5.05;;;1.63;;
38972;SDS011;25333;50.762;4.470;2022-09-09T10:27:08;4.78;;;1.60;;
38972;SDS011;25333;50.762;4.470;2022-09-09T10:29:51;5.18;;;2.00;;
38972;SDS011;25333;50.762;4.470;2022-09-09T10:32:37;9.65;;;2.22;;
38972;SDS011;25333;50.762;4.470;2022-09-09T10:38:13;5.28;;;2.03;;
38972;SDS011;25333;50.762;4.470;2022-09-09T10:49:11;7.88;;;2.15;;
38972;SDS011;25333;50.762;4.470;2022-09-09T10:57:23;5.97;;;2.33;;
38972;SDS011;25333;50.762;4.470;2022-09-09T10:59:54;7.55;;;2.15;;
38972;SDS011;25333;50.762;4.470;2022-09-09T11:02:29;5.57;;;2.00;;
38972;SDS011;25333;50.762;4.470;2022-09-09T11:05:16;8.17;;;1.87;;
38972;SDS011;25333;50.762;4.470;2022-09-09T11:08:18;4.85;;;1.73;;
38972;SDS011;25333;50.762;4.470;2022-09-09T11:11:09;7.75;;;1.88;;
38972;SDS011;25333;50.762;4.470;2022-09-09T11:17:15;4.88;;;1.90;;
38972;SDS011;25333;50.762;4.470;2022-09-09T11:20:35;6.03;;;1.50;;
38972;SDS011;25333;50.762;4.470;2022-09-09T11:23:35;3.70;;;1.55;;
38972;SDS011;25333;50.762;4.470;2022-09-09T11:26:10;5.10;;;1.50;;
38972;SDS011;25333;50.762;4.470;2022-09-09T11:38:53;4.95;;;1.25;;
38972;SDS011;25333;50.762;4.470;2022-09-09T11:41:34;5.32;;;1.67;;
38972;SDS011;25333;50.762;4.470;2022-09-09T11:44:08;4.68;;;1.13;;
38972;SDS011;25333;50.762;4.470;2022-09-09T11:46:42;4.82;;;1.40;;
38972;SDS011;25333;50.762;4.470;2022-09-09T11:49:25;4.53;;;1.40;;
38972;SDS011;25333;50.762;4.470;2022-09-09T11:52:12;4.78;;;1.17;;
38972;SDS011;25333;50.762;4.470;2022-09-09T11:54:46;5.90;;;1.57;;
38972;SDS011;25333;50.762;4.470;2022-09-09T11:57:32;3.97;;;1.17;;
38972;SDS011;25333;50.762;4.470;2022-09-09T12:00:03;3.30;;;1.40;;
38972;SDS011;25333;50.762;4.470;2022-09-09T12:02:29;5.75;;;1.38;;
38972;SDS011;25333;50.762;4.470;2022-09-09T12:05:05;4.63;;;0.95;;
38972;SDS011;25333;50.762;4.470;2022-09-09T12:07:50;2.92;;;1.20;;
38972;SDS011;25333;50.762;4.470;2022-09-09T12:10:22;3.58;;;1.45;;
38972;SDS011;25333;50.762;4.470;2022-09-09T12:13:15;4.20;;;1.13;;
38972;SDS011;25333;50.762;4.470;2022-09-09T12:15:49;4.53;;;1.50;;
38972;SDS011;25333;50.762;4.470;2022-09-09T12:18:25;4.00;;;1.25;;
38972;SDS011;25333;50.762;4.470;2022-09-09T12:26:05;4.80;;;1.27;;
38972;SDS011;25333;50.762;4.470;2022-09-09T12:34:13;3.45;;;0.75;;
38972;SDS011;25333;50.762;4.470;2022-09-09T12:40:01;4.65;;;1.30;;
38972;SDS011;25333;50.762;4.470;2022-09-09T12:42:31;6.50;;;1.10;;
38972;SDS011;25333;50.762;4.470;2022-09-09T12:44:59;2.92;;;1.10;;
38972;SDS011;25333;50.762;4.470;2022-09-09T12:47:40;2.75;;;0.98;;
38972;SDS011;25333;50.762;4.470;2022-09-09T12:52:54;5.13;;;1.10;;
38972;SDS011;25333;50.762;4.470;2022-09-09T12:55:33;4.40;;;1.00;;
38972;SDS011;25333;50.762;4.470;2022-09-09T12:58:01;2.72;;;0.90;;
38972;SDS011;25333;50.762;4.470;2022-09-09T13:00:30;2.67;;;0.75;;
38972;SDS011;25333;50.762;4.470;2022-09-09T13:02:57;3.60;;;0.77;;
38972;SDS011;25333;50.762;4.470;2022-09-09T13:05:31;2.80;;;0.90;;
38972;SDS011;25333;50.762;4.470;2022-09-09T13:08:04;2.38;;;0.80;;
38972;SDS011;25333;50.762;4.470;2022-09-09T13:10:33;3.55;;;0.63;;
38972;SDS011;25333;50.762;4.470;2022-09-09T13:13:03;2.13;;;0.55;;
38972;SDS011;25333;50.762;4.470;2022-09-09T13:15:37;1.50;;;0.50;;
38972;SDS011;25333;50.762;4.470;2022-09-09T13:18:04;3.47;;;1.08;;
38972;SDS011;25333;50.762;4.470;2022-09-09T13:20:36;3.75;;;0.70;;
38972;SDS011;25333;50.762;4.470;2022-09-09T13:23:02;4.30;;;0.70;;
38972;SDS011;25333;50.762;4.470;2022-09-09T13:25:27;2.50;;;0.57;;
38972;SDS011;25333;50.762;4.470;2022-09-09T13:35:45;2.63;;;0.65;;
38972;SDS011;25333;50.762;4.470;2022-09-09T13:38:18;1.88;;;0.30;;
38972;SDS011;25333;50.762;4.470;2022-09-09T13:41:03;1.88;;;0.32;;
38972;SDS011;25333;50.762;4.470;2022-09-09T13:43:35;2.03;;;0.30;;
38972;SDS011;25333;50.762;4.470;2022-09-09T13:49:16;3.47;;;0.60;;
38972;SDS011;25333;50.762;4.470;2022-09-09T13:51:48;3.03;;;0.60;;
38972;SDS011;25333;50.762;4.470;2022-09-09T13:54:16;5.20;;;0.50;;
38972;SDS011;25333;50.762;4.470;2022-09-09T13:56:44;3.25;;;0.70;;
38972;SDS011;25333;50.762;4.470;2022-09-09T13:59:17;1.88;;;0.55;;
38972;SDS011;25333;50.762;4.470;2022-09-09T14:01:50;2.45;;;0.65;;
38972;SDS011;25333;50.762;4.470;2022-09-09T14:04:21;1.88;;;0.40;;
38972;SDS011;25333;50.762;4.470;2022-09-09T14:06:47;1.80;;;0.70;;
38972;SDS011;25333;50.762;4.470;2022-09-09T14:09:24;1.45;;;0.68;;
38972;SDS011;25333;50.762;4.470;2022-09-09T14:11:50;2.45;;;0.85;;
38972;SDS011;25333;50.762;4.470;2022-09-09T14:14:16;2.30;;;0.70;;
38972;SDS011;25333;50.762;4.470;2022-09-09T14:16:41;4.60;;;1.00;;
38972;SDS011;25333;50.762;4.470;2022-09-09T14:19:08;2.07;;;0.77;;
38972;SDS011;25333;50.762;4.470;2022-09-09T14:21:34;1.40;;;0.70;;
38972;SDS011;25333;50.762;4.470;2022-09-09T14:24:00;5.90;;;1.13;;
38972;SDS011;25333;50.762;4.470;2022-09-09T14:26:26;2.78;;;0.70;;
38972;SDS011;25333;50.762;4.470;2022-09-09T14:29:05;3.03;;;0.80;;
38972;SDS011;25333;50.762;4.470;2022-09-09T14:31:31;1.67;;;0.80;;
38972;SDS011;25333;50.762;4.470;2022-09-09T14:33:57;2.00;;;0.60;;
38972;SDS011;25333;50.762;4.470;2022-09-09T14:36:24;6.30;;;1.10;;
38972;SDS011;25333;50.762;4.470;2022-09-09T14:38:50;2.75;;;0.98;;
38972;SDS011;25333;50.762;4.470;2022-09-09T14:41:18;1.83;;;0.70;;
38972;SDS011;25333;50.762;4.470;2022-09-09T14:43:47;2.47;;;1.10;;
38972;SDS011;25333;50.762;4.470;2022-09-09T14:46:14;1.45;;;0.50;;
38972;SDS011;25333;50.762;4.470;2022-09-09T14:48:41;3.38;;;0.70;;
38972;SDS011;25333;50.762;4.470;2022-09-09T14:51:11;3.20;;;0.83;;
38972;SDS011;25333;50.762;4.470;2022-09-09T14:53:44;1.70;;;0.55;;
38972;SDS011;25333;50.762;4.470;2022-09-09T14:56:20;3.75;;;0.77;;
38972;SDS011;25333;50.762;4.470;2022-09-09T14:58:55;2.90;;;0.70;;
38972;SDS011;25333;50.762;4.470;2022-09-09T15:01:23;2.67;;;0.88;;
38972;SDS011;25333;50.762;4.470;2022-09-09T15:03:55;4.47;;;0.90;;
38972;SDS011;25333;50.762;4.470;2022-09-09T15:06:26;2.22;;;0.57;;
38972;SDS011;25333;50.762;4.470;2022-09-09T15:09:04;4.00;;;0.68;;
38972;SDS011;25333;50.762;4.470;2022-09-09T15:11:31;1.58;;;0.45;;
38972;SDS011;25333;50.762;4.470;2022-09-09T15:14:02;2.03;;;0.33;;
38972;SDS011;25333;50.762;4.470;2022-09-09T15:16:29;5.07;;;0.98;;
38972;SDS011;25333;50.762;4.470;2022-09-09T15:18:57;2.45;;;0.77;;
38972;SDS011;25333;50.762;4.470;2022-09-09T15:21:28;3.17;;;0.60;;
38972;SDS011;25333;50.762;4.470;2022-09-09T15:24:10;4.27;;;0.77;;
38972;SDS011;25333;50.762;4.470;2022-09-09T15:26:38;2.30;;;0.60;;
38972;SDS011;25333;50.762;4.470;2022-09-09T15:29:04;3.53;;;0.77;;
38972;SDS011;25333;50.762;4.470;2022-09-09T15:31:45;3.67;;;0.90;;
38972;SDS011;25333;50.762;4.470;2022-09-09T15:34:11;1.92;;;0.50;;
38972;SDS011;25333;50.762;4.470;2022-09-09T15:36:58;3.03;;;0.50;;
38972;SDS011;25333;50.762;4.470;2022-09-09T15:39:27;5.10;;;0.88;;
38972;SDS011;25333;50.762;4.470;2022-09-09T15:41:52;2.73;;;0.47;;
38972;SDS011;25333;50.762;4.470;2022-09-09T15:44:18;2.00;;;0.47;;
38972;SDS011;25333;50.762;4.470;2022-09-09T15:46:45;2.83;;;0.75;;
38972;SDS011;25333;50.762;4.470;2022-09-09T15:49:17;1.48;;;0.65;;
38972;SDS011;25333;50.762;4.470;2022-09-09T15:51:54;3.00;;;0.60;;
38972;SDS011;25333;50.762;4.470;2022-09-09T15:54:22;2.20;;;0.80;;
38972;SDS011;25333;50.762;4.470;2022-09-09T15:56:50;2.58;;;0.40;;
38972;SDS011;25333;50.762;4.470;2022-09-09T15:59:17;2.65;;;0.50;;
38972;SDS011;25333;50.762;4.470;2022-09-09T16:01:43;2.47;;;0.70;;
38972;SDS011;25333;50.762;4.470;2022-09-09T16:04:09;2.50;;;0.90;;
38972;SDS011;25333;50.762;4.470;2022-09-09T16:06:35;1.48;;;0.40;;
38972;SDS011;25333;50.762;4.470;2022-09-09T16:09:02;3.13;;;0.80;;
38972;SDS011;25333;50.762;4.470;2022-09-09T16:11:30;4.13;;;0.90;;
38972;SDS011;25333;50.762;4.470;2022-09-09T16:13:58;3.83;;;0.68;;
38972;SDS011;25333;50.762;4.470;2022-09-09T16:16:25;3.03;;;0.70;;
38972;SDS011;25333;50.762;4.470;2022-09-09T16:18:53;2.22;;;0.88;;
38972;SDS011;25333;50.762;4.470;2022-09-09T16:21:27;3.90;;;0.80;;
38972;SDS011;25333;50.762;4.470;2022-09-09T16:23:57;3.42;;;0.90;;
38972;SDS011;25333;50.762;4.470;2022-09-09T16:26:31;6.40;;;0.68;;
38972;SDS011;25333;50.762;4.470;2022-09-09T16:28:59;2.55;;;0.70;;
38972;SDS011;25333;50.762;4.470;2022-09-09T16:31:26;1.85;;;0.73;;
38972;SDS011;25333;50.762;4.470;2022-09-09T16:33:53;4.55;;;0.65;;
38972;SDS011;25333;50.762;4.470;2022-09-09T16:36:20;3.22;;;0.77;;
38972;SDS011;25333;50.762;4.470;2022-09-09T16:38:47;1.90;;;0.60;;
38972;SDS011;25333;50.762;4.470;2022-09-09T16:41:16;5.25;;;0.82;;
38972;SDS011;25333;50.762;4.470;2022-09-09T16:43:42;1.67;;;0.40;;
38972;SDS011;25333;50.762;4.470;2022-09-09T16:46:17;0.98;;;0.13;;
38972;SDS011;25333;50.762;4.470;2022-09-09T16:48:45;0.95;;;0.20;;
38972;SDS011;25333;50.762;4.470;2022-09-09T16:51:13;1.17;;;0.10;;
38972;SDS011;25333;50.762;4.470;2022-09-09T16:53:48;1.30;;;0.10;;
38972;SDS011;25333;50.762;4.470;2022-09-09T16:56:15;1.25;;;0.20;;
38972;SDS011;25333;50.762;4.470;2022-09-09T16:58:43;1.33;;;0.20;;
38972;SDS011;25333;50.762;4.470;2022-09-09T17:01:15;0.88;;;0.13;;
38972;SDS011;25333;50.762;4.470;2022-09-09T17:03:40;1.20;;;0.10;;
38972;SDS011;25333;50.762;4.470;2022-09-09T17:06:08;0.50;;;0.20;;
38972;SDS011;25333;50.762;4.470;2022-09-09T17:08:36;0.30;;;0.10;;
38972;SDS011;25333;50.762;4.470;2022-09-09T17:11:02;0.65;;;0.15;;
38972;SDS011;25333;50.762;4.470;2022-09-09T17:13:28;0.90;;;0.20;;
38972;SDS011;25333;50.762;4.470;2022-09-09T17:15:53;2.13;;;0.50;;
38972;SDS011;25333;50.762;4.470;2022-09-09T17:18:19;2.67;;;0.40;;